createdAt,value
2019-02-19T00:00:13.259Z,120.23
2019-02-19T00:06:08.235Z,58.82
2019-02-19T00:12:03.247Z,48.72
2019-02-19T00:17:58.262Z,49.47
2019-02-19T00:23:53.258Z,42.49
2019-02-19T00:29:48.278Z,38.17
2019-02-19T00:35:43.274Z,47.56
2019-02-19T00:41:38.238Z,50.42
2019-02-19T00:47:33.253Z,53.1
2019-02-19T00:53:28.265Z,48.19
2019-02-19T00:59:23.269Z,52.1
2019-02-19T01:05:18.311Z,51.07
2019-02-19T01:11:13.305Z,51.64
2019-02-19T01:17:08.333Z,48.32
2019-02-19T01:23:03.396Z,49.22
2019-02-19T01:28:58.429Z,51.02
2019-02-19T01:35:41.490Z,56.42
2019-02-19T01:40:48.311Z,54.58
2019-02-19T01:46:43.332Z,50.17
2019-02-19T01:52:38.268Z,59.93
2019-02-19T01:58:33.285Z,51.48
2019-02-19T02:04:28.298Z,60.3
2019-02-19T02:10:23.293Z,57.88
2019-02-19T02:16:18.297Z,54.93
2019-02-19T02:22:13.279Z,51.37
2019-02-19T02:28:08.305Z,52.96
2019-02-19T02:34:03.291Z,50.56
2019-02-19T02:39:58.294Z,55.03
2019-02-19T02:45:53.854Z,53.62
2019-02-19T02:51:48.294Z,46.34
2019-02-19T02:57:43.285Z,45.98
2019-02-19T03:03:38.345Z,50.07
2019-02-19T03:09:33.295Z,48
2019-02-19T03:15:28.295Z,49.82
2019-02-19T03:21:23.283Z,49.65
2019-02-19T03:27:18.283Z,48.1
2019-02-19T03:33:13.320Z,52.13
2019-02-19T03:39:08.298Z,49.12
2019-02-19T03:45:03.306Z,47.58
2019-02-19T03:50:58.294Z,44.5
2019-02-19T03:56:53.295Z,41.85
2019-02-19T04:02:48.301Z,47.36
2019-02-19T04:08:43.313Z,44.94
2019-02-19T04:14:38.357Z,44.57
2019-02-19T04:20:33.307Z,43.97
2019-02-19T04:26:28.394Z,39.83
2019-02-19T04:32:23.332Z,37.52
2019-02-19T04:38:18.303Z,42.27
2019-02-19T04:44:13.307Z,49.55
2019-02-19T04:50:08.310Z,48.49
2019-02-19T04:56:03.338Z,43.8
2019-02-19T05:01:58.296Z,42.38
2019-02-19T05:07:53.310Z,49.35
2019-02-19T05:13:48.320Z,58.95
2019-02-19T05:19:43.316Z,52.75
2019-02-19T05:25:38.312Z,45.7
2019-02-19T05:31:33.315Z,53.03
2019-02-19T05:37:28.334Z,51.41
2019-02-19T05:43:23.319Z,50.69
2019-02-19T05:49:18.389Z,50.97
2019-02-19T05:55:13.320Z,56.52
2019-02-19T06:01:08.374Z,62.48
2019-02-19T06:07:03.451Z,73.76
2019-02-19T06:12:58.345Z,55.4
2019-02-19T06:18:53.325Z,53.34
2019-02-19T06:24:48.351Z,62.55
2019-02-19T06:30:43.364Z,58.47
2019-02-19T06:36:38.340Z,52.13
2019-02-19T06:42:33.346Z,68.15
2019-02-19T06:48:28.353Z,60.58
2019-02-19T06:54:23.351Z,56.87
2019-02-19T07:00:18.327Z,68.6
2019-02-19T07:06:13.348Z,64.35
2019-02-19T07:12:08.368Z,64.82
2019-02-19T07:18:03.332Z,60.73
2019-02-19T07:24:04.318Z,58.69
2019-02-19T07:29:53.387Z,60.6
2019-02-19T07:35:48.380Z,56.65
2019-02-19T07:41:43.357Z,54.67
2019-02-19T07:47:38.397Z,53.99
2019-02-19T07:53:33.348Z,58.62
2019-02-19T07:59:28.354Z,45.06
2019-02-19T08:05:23.366Z,52.25
2019-02-19T08:11:18.386Z,57.96
2019-02-19T08:17:13.419Z,58.98
2019-02-19T08:23:08.368Z,63.28
2019-02-19T08:29:13.193Z,58.8
2019-02-19T08:34:58.401Z,61.75
2019-02-19T08:40:53.356Z,67.89
2019-02-19T08:46:48.351Z,65.05
2019-02-19T08:52:43.387Z,69.15
2019-02-19T08:58:38.385Z,63.99
2019-02-19T09:04:33.373Z,66.96
2019-02-19T09:10:28.467Z,69.82
2019-02-19T09:16:23.424Z,70.17
2019-02-19T09:22:18.421Z,66.7
2019-02-19T09:28:13.365Z,69.82
2019-02-19T09:34:08.391Z,65.54
2019-02-19T09:40:03.384Z,89.84
2019-02-19T09:45:59.048Z,91.59
2019-02-19T09:51:53.395Z,74.5
2019-02-19T09:57:48.430Z,85.64
2019-02-19T10:03:43.421Z,65.58
2019-02-19T10:09:38.386Z,59.03
2019-02-19T10:15:33.462Z,72.96
2019-02-19T10:21:28.366Z,67.66
2019-02-19T10:27:23.398Z,62.59
2019-02-19T10:33:18.391Z,62.04
2019-02-19T10:39:13.425Z,60.41
2019-02-19T10:45:08.416Z,64.99
2019-02-19T10:51:03.409Z,62.88
2019-02-19T10:56:58.442Z,52.01
2019-02-19T11:02:53.412Z,49.87
2019-02-19T11:08:48.420Z,42.68
2019-02-19T11:14:43.479Z,24.63
2019-02-19T11:20:38.406Z,14.38
2019-02-19T11:26:33.412Z,15.88
2019-02-19T11:32:28.391Z,12.12
2019-02-19T11:38:23.391Z,14.79
2019-02-19T11:44:18.392Z,16.61
2019-02-19T11:50:13.478Z,14.1
2019-02-19T11:56:08.408Z,10.83
2019-02-19T12:02:03.435Z,13.72
2019-02-19T12:07:58.488Z,16.52
2019-02-19T12:13:53.402Z,13.07
2019-02-19T12:19:48.408Z,11.94
2019-02-19T12:25:43.448Z,10.29
2019-02-19T12:31:38.410Z,9.04
2019-02-19T12:37:33.397Z,15.94
2019-02-19T12:43:28.434Z,14.04
2019-02-19T12:49:23.439Z,12.39
2019-02-19T12:55:18.449Z,12.78
2019-02-19T13:01:13.439Z,10.67
2019-02-19T13:07:08.426Z,11.18
2019-02-19T13:13:03.408Z,8.74
2019-02-19T13:19:03.388Z,10.03
2019-02-19T13:24:53.409Z,7.85
2019-02-19T13:30:48.436Z,7.08
2019-02-19T13:36:43.451Z,8.62
2019-02-19T13:42:38.439Z,7.74
2019-02-19T13:48:33.440Z,5.67
2019-02-19T13:54:28.416Z,5.17
2019-02-19T14:00:23.437Z,7.05
2019-02-19T14:06:18.419Z,7.33
2019-02-19T14:12:13.450Z,8.61
2019-02-19T14:18:08.457Z,6.44
2019-02-19T14:24:03.445Z,7.54
2019-02-19T14:29:58.439Z,6.27
2019-02-19T14:35:53.450Z,8.28
2019-02-19T14:41:48.460Z,10.68
2019-02-19T14:47:43.445Z,13.4
2019-02-19T14:53:38.445Z,9.47
2019-02-19T14:59:33.441Z,10.51
2019-02-19T15:05:28.532Z,9.21
2019-02-19T15:11:23.444Z,8.51
2019-02-19T15:17:18.493Z,8.12
2019-02-19T15:23:13.469Z,8.11
2019-02-19T15:29:08.490Z,9.88
2019-02-19T15:35:03.507Z,9.17
2019-02-19T15:40:58.464Z,10.07
2019-02-19T15:46:53.469Z,12.68
2019-02-19T15:52:48.478Z,7.5
2019-02-19T15:58:43.479Z,9.61
2019-02-19T16:04:38.573Z,9.91
2019-02-19T16:10:33.478Z,9.36
2019-02-19T16:16:28.477Z,16.05
2019-02-19T16:22:23.456Z,10.54
2019-02-19T16:28:18.464Z,8.92
2019-02-19T16:34:13.480Z,11.43
2019-02-19T16:40:08.513Z,12.97
2019-02-19T16:46:03.466Z,8.91
2019-02-19T16:51:58.502Z,13.67
2019-02-19T16:57:53.483Z,10.07
2019-02-19T17:03:48.506Z,10.89
2019-02-19T17:09:43.482Z,13.9
2019-02-19T17:15:38.481Z,14.48
2019-02-19T17:21:33.526Z,12.57
2019-02-19T17:27:28.528Z,14.33
2019-02-19T17:33:23.529Z,21.2
2019-02-19T17:39:18.545Z,27.33
2019-02-19T17:45:13.536Z,25.79
2019-02-19T17:51:08.524Z,18.11
2019-02-19T17:57:03.525Z,43.61
2019-02-19T18:02:58.489Z,38.51
2019-02-19T18:08:53.518Z,39.19
2019-02-19T18:14:48.504Z,43.1
2019-02-19T18:20:47.387Z,40.47
2019-02-19T18:26:38.512Z,225.17
2019-02-19T18:32:33.494Z,209.93
2019-02-19T18:38:28.525Z,220.72
2019-02-19T18:44:23.552Z,181.06
2019-02-19T18:50:18.555Z,74.31
2019-02-19T18:56:13.568Z,111.12
2019-02-19T19:02:08.510Z,91.7
2019-02-19T19:08:03.510Z,63.69
2019-02-19T19:13:58.525Z,60.3
2019-02-19T19:19:53.564Z,56.02
2019-02-19T19:25:48.518Z,80.82
2019-02-19T19:31:43.501Z,53.72
2019-02-19T19:37:38.631Z,48.6
2019-02-19T19:43:33.505Z,61.5
2019-02-19T19:49:28.534Z,53.11
2019-02-19T19:55:23.512Z,61.83
2019-02-19T20:01:18.577Z,49.9
2019-02-19T20:07:13.635Z,46.87
2019-02-19T20:13:08.515Z,86.13
2019-02-19T20:19:03.515Z,71.91
2019-02-19T20:24:58.556Z,33.55
2019-02-19T20:30:53.519Z,31.85
2019-02-19T20:36:48.521Z,25.5
2019-02-19T20:42:43.564Z,25.25
2019-02-19T20:48:38.521Z,23
2019-02-19T20:54:33.528Z,131.48
2019-02-19T21:00:28.529Z,62.27
2019-02-19T21:06:23.533Z,27.85
2019-02-19T21:12:18.553Z,17.7
2019-02-19T21:18:13.798Z,78.32
2019-02-19T21:24:08.640Z,77.62
2019-02-19T21:30:03.538Z,59.61
2019-02-19T21:35:58.578Z,159.98
2019-02-19T21:41:53.574Z,42.75
2019-02-19T21:47:48.560Z,27.68
2019-02-19T21:53:43.535Z,20.84
2019-02-19T21:59:38.571Z,32.05
2019-02-19T22:05:33.557Z,39.54
2019-02-19T22:11:28.611Z,64.43
2019-02-19T22:17:23.565Z,20.64
2019-02-19T22:23:18.565Z,25.74
2019-02-19T22:29:13.527Z,19.07
2019-02-19T22:35:08.546Z,20.08
2019-02-19T22:41:03.567Z,22.14
2019-02-19T22:46:58.595Z,21.1
2019-02-19T22:52:53.589Z,23.86
2019-02-19T22:58:48.563Z,20.36
2019-02-19T23:04:43.574Z,15.45
2019-02-19T23:10:38.568Z,14.5
2019-02-19T23:16:33.560Z,20.46
2019-02-19T23:22:28.545Z,15.59
2019-02-19T23:28:23.579Z,13.58
2019-02-19T23:34:18.567Z,15.4
2019-02-19T23:40:13.559Z,12.9
2019-02-19T23:46:08.571Z,14.27
2019-02-19T23:52:03.554Z,19.06
2019-02-19T23:57:58.578Z,11.15
